createdAt,value
2023-01-23T00:00:17.270Z,86.20
2023-01-23T00:02:45.858Z,85.70
2023-01-23T00:05:14.473Z,86.69
2023-01-23T00:07:44.598Z,85.98
2023-01-23T00:10:13.590Z,85.93
2023-01-23T00:12:46.326Z,86.79
2023-01-23T00:15:16.656Z,85.86
2023-01-23T00:17:45.568Z,85.80
2023-01-23T00:20:14.676Z,86.60
2023-01-23T00:22:44.915Z,86.72
2023-01-23T00:25:13.260Z,86.19
2023-01-23T00:27:41.570Z,86.12
2023-01-23T00:30:13.630Z,86.56
2023-01-23T00:32:42.616Z,86.50
2023-01-23T00:35:11.084Z,86.07
2023-01-23T00:37:39.537Z,86.53
2023-01-23T00:40:11.619Z,86.01
2023-01-23T00:42:40.115Z,85.76
2023-01-23T00:45:09.634Z,85.82
2023-01-23T00:47:38.514Z,86.27
2023-01-23T00:50:07.708Z,86.24
2023-01-23T00:52:36.370Z,86.35
2023-01-23T00:55:05.884Z,86.09
2023-01-23T00:57:35.893Z,86.45
2023-01-23T01:00:05.084Z,85.96
2023-01-23T01:02:33.533Z,85.89
2023-01-23T01:05:01.765Z,86.18
2023-01-23T01:07:30.102Z,86.01
2023-01-23T01:09:58.382Z,85.93
2023-01-23T01:12:26.714Z,85.83
2023-01-23T01:14:57.295Z,86.21
2023-01-23T01:17:25.746Z,86.24
2023-01-23T01:19:54.074Z,86.57
2023-01-23T01:22:22.576Z,86.32
2023-01-23T01:24:51.144Z,86.42
2023-01-23T01:27:19.505Z,85.88
2023-01-23T01:29:47.851Z,85.75
2023-01-23T01:32:17.688Z,86.55
2023-01-23T01:34:46.006Z,85.96
2023-01-23T01:37:14.352Z,85.86
2023-01-23T01:39:42.811Z,86.30
2023-01-23T01:42:11.140Z,86.34
2023-01-23T01:44:56.057Z,86.11
2023-01-23T01:47:26.002Z,85.84
2023-01-23T01:49:58.091Z,86.44
2023-01-23T01:52:28.360Z,86.38
2023-01-23T01:55:01.430Z,86.39
2023-01-23T01:57:33.289Z,86.25
2023-01-23T02:00:08.541Z,86.31
2023-01-23T02:02:44.889Z,86.60
2023-01-23T02:05:17.197Z,86.47
2023-01-23T02:07:50.788Z,86.34
2023-01-23T02:10:19.271Z,85.70
2023-01-23T02:12:49.672Z,86.21
2023-01-23T02:15:20.914Z,85.87
2023-01-23T02:17:54.637Z,85.94
2023-01-23T02:20:27.170Z,86.32
2023-01-23T02:23:07.204Z,86.50
2023-01-23T02:25:43.666Z,86.30
2023-01-23T02:28:15.670Z,85.66
2023-01-23T02:30:47.262Z,86.23
2023-01-23T02:33:46.430Z,85.79
2023-01-23T02:36:15.459Z,85.77
2023-01-23T02:38:54.491Z,85.91
2023-01-23T02:41:29.701Z,85.86
2023-01-23T02:44:04.484Z,85.98
2023-01-23T02:46:33.241Z,85.75
2023-01-23T02:49:01.587Z,86.13
2023-01-23T02:51:30.153Z,86.56
2023-01-23T02:53:58.644Z,86.38
2023-01-23T02:56:27.257Z,86.40
2023-01-23T02:59:13.166Z,86.43
2023-01-23T03:01:43.219Z,86.30
2023-01-23T03:04:11.892Z,86.63
2023-01-23T03:06:40.345Z,86.51
2023-01-23T03:09:12.368Z,86.71
2023-01-23T03:11:42.800Z,85.76
2023-01-23T03:14:14.540Z,86.25
2023-01-23T03:16:49.923Z,86.71
2023-01-23T03:19:20.869Z,85.97
2023-01-23T03:21:49.361Z,86.00
2023-01-23T03:24:18.669Z,86.41
2023-01-23T03:26:52.080Z,86.45
2023-01-23T03:29:41.923Z,86.50
2023-01-23T03:32:13.581Z,86.74
2023-01-23T03:34:42.904Z,86.76
2023-01-23T03:37:15.180Z,86.37
2023-01-23T03:40:01.260Z,86.18
2023-01-23T03:42:29.644Z,86.13
2023-01-23T03:44:58.005Z,86.34
2023-01-23T03:47:28.352Z,86.86
2023-01-23T03:49:56.784Z,86.56
2023-01-23T03:52:25.633Z,86.62
2023-01-23T03:54:54.238Z,86.38
2023-01-23T03:57:22.603Z,86.96
2023-01-23T03:59:51.009Z,86.89
2023-01-23T04:02:19.323Z,86.01
2023-01-23T04:04:49.475Z,86.25
2023-01-23T04:07:17.881Z,86.74
2023-01-23T04:09:46.249Z,85.95
2023-01-23T04:12:15.045Z,86.91
2023-01-23T04:14:43.880Z,86.54
2023-01-23T04:17:12.964Z,86.73
2023-01-23T04:19:41.545Z,86.78
2023-01-23T04:22:11.656Z,86.07
2023-01-23T04:24:40.021Z,86.62
2023-01-23T04:27:08.498Z,86.48
2023-01-23T04:29:37.091Z,86.81
2023-01-23T04:32:05.960Z,86.71
2023-01-23T04:34:34.647Z,86.72
2023-01-23T04:37:02.947Z,86.69
2023-01-23T04:39:32.671Z,86.93
2023-01-23T04:42:01.081Z,86.77
2023-01-23T04:44:29.408Z,86.92
2023-01-23T04:46:57.761Z,86.92
2023-01-23T04:49:26.628Z,87.01
2023-01-23T04:51:56.118Z,86.90
2023-01-23T04:54:24.545Z,86.79
2023-01-23T04:56:54.374Z,86.72
2023-01-23T04:59:23.959Z,86.58
2023-01-23T05:01:52.485Z,86.60
2023-01-23T05:04:21.206Z,87.09
2023-01-23T05:06:49.779Z,86.26
2023-01-23T05:09:18.139Z,86.57
2023-01-23T05:11:46.834Z,86.28
2023-01-23T05:14:16.529Z,86.36
2023-01-23T05:16:45.173Z,86.33
2023-01-23T05:19:13.421Z,86.28
2023-01-23T05:21:42.515Z,87.02
2023-01-23T05:24:11.517Z,87.19
2023-01-23T05:26:39.915Z,87.01
2023-01-23T05:29:08.433Z,87.00
2023-01-23T05:31:38.909Z,86.94
2023-01-23T05:34:07.302Z,87.07
2023-01-23T05:36:35.948Z,86.44
2023-01-23T05:39:07.875Z,87.43
2023-01-23T05:41:36.265Z,87.46
2023-01-23T05:44:04.601Z,86.84
2023-01-23T05:46:32.987Z,86.61
2023-01-23T05:49:02.915Z,87.43
2023-01-23T05:51:33.885Z,87.62
2023-01-23T05:54:03.326Z,87.59
2023-01-23T05:56:31.828Z,87.45
2023-01-23T05:59:00.115Z,86.97
2023-01-23T06:01:28.605Z,87.24
2023-01-23T06:03:56.909Z,87.23
2023-01-23T06:06:26.605Z,87.56
2023-01-23T06:08:54.900Z,87.13
2023-01-23T06:11:23.626Z,87.13
2023-01-23T06:13:52.274Z,87.65
2023-01-23T06:16:20.706Z,87.67
2023-01-23T06:18:49.284Z,87.30
2023-01-23T06:21:18.416Z,87.94
2023-01-23T06:23:48.321Z,87.35
2023-01-23T06:26:21.215Z,87.65
2023-01-23T06:28:49.664Z,87.15
2023-01-23T06:31:18.021Z,87.94
2023-01-23T06:33:51.211Z,87.51
2023-01-23T06:36:19.780Z,87.01
2023-01-23T06:38:49.508Z,86.75
2023-01-23T06:41:19.853Z,87.94
2023-01-23T06:43:48.961Z,87.98
2023-01-23T06:46:17.331Z,87.86
2023-01-23T06:48:45.788Z,87.52
2023-01-23T06:51:14.148Z,87.04
2023-01-23T06:53:42.680Z,87.17
2023-01-23T06:56:13.499Z,87.13
2023-01-23T06:58:46.778Z,87.00
2023-01-23T07:01:18.472Z,87.85
2023-01-23T07:03:47.193Z,87.77
2023-01-23T07:06:17.305Z,87.56
2023-01-23T07:08:45.944Z,87.32
2023-01-23T07:11:15.704Z,88.05
2023-01-23T07:13:44.213Z,87.71
2023-01-23T07:16:12.540Z,87.36
2023-01-23T07:18:41.472Z,87.32
2023-01-23T07:21:10.021Z,87.30
2023-01-23T07:23:38.868Z,87.70
2023-01-23T07:26:09.699Z,87.38
2023-01-23T07:28:39.802Z,88.18
2023-01-23T07:31:08.524Z,87.13
2023-01-23T07:33:37.132Z,87.75
2023-01-23T07:36:07.938Z,87.34
2023-01-23T07:38:37.136Z,88.10
2023-01-23T07:41:06.055Z,87.47
2023-01-23T07:43:34.467Z,87.75
2023-01-23T07:46:04.598Z,87.17
2023-01-23T07:48:32.979Z,87.26
2023-01-23T07:51:04.265Z,87.69
2023-01-23T07:53:32.895Z,87.58
2023-01-23T07:56:02.459Z,87.87
2023-01-23T07:58:30.788Z,87.13
2023-01-23T08:00:59.339Z,87.91
2023-01-23T08:03:30.177Z,86.94
2023-01-23T08:05:59.741Z,87.69
2023-01-23T08:08:28.014Z,87.11
2023-01-23T08:10:56.452Z,87.74
2023-01-23T08:13:24.753Z,86.99
2023-01-23T08:15:54.518Z,86.85
2023-01-23T08:18:23.436Z,87.14
2023-01-23T08:20:56.692Z,87.34
2023-01-23T08:23:26.620Z,86.64
2023-01-23T08:25:56.235Z,87.32
2023-01-23T08:28:26.211Z,87.03
2023-01-23T08:30:55.872Z,86.91
2023-01-23T08:33:24.761Z,86.71
2023-01-23T08:35:56.507Z,86.77
2023-01-23T08:38:26.471Z,86.49
2023-01-23T08:40:56.479Z,86.28
2023-01-23T08:43:25.111Z,86.82
2023-01-23T08:45:57.152Z,86.56
2023-01-23T08:48:27.400Z,86.12
2023-01-23T08:51:03.118Z,86.34
2023-01-23T08:53:32.545Z,86.48
2023-01-23T08:56:02.160Z,86.27
2023-01-23T08:58:30.725Z,85.95
2023-01-23T09:00:59.586Z,85.93
2023-01-23T09:03:28.813Z,85.63
2023-01-23T09:05:57.178Z,85.82
2023-01-23T09:08:26.920Z,85.72
2023-01-23T09:10:56.587Z,85.53
2023-01-23T09:13:25.874Z,85.50
2023-01-23T09:15:54.359Z,85.68
2023-01-23T09:18:24.890Z,84.87
2023-01-23T09:20:54.271Z,85.10
2023-01-23T09:23:23.923Z,85.24
2023-01-23T09:25:54.003Z,85.07
2023-01-23T09:28:22.371Z,84.32
2023-01-23T09:30:51.441Z,84.44
2023-01-23T09:33:24.702Z,84.72
2023-01-23T09:35:54.177Z,84.85
2023-01-23T09:38:22.492Z,84.66
2023-01-23T09:40:57.530Z,84.30
2023-01-23T09:43:38.879Z,84.48
2023-01-23T09:46:16.768Z,84.62
2023-01-23T09:48:47.793Z,84.44
2023-01-23T09:51:25.060Z,84.42
2023-01-23T09:53:56.327Z,83.80
2023-01-23T09:56:41.906Z,84.05
2023-01-23T09:59:17.058Z,83.84
2023-01-23T10:01:45.798Z,84.03
2023-01-23T10:04:15.911Z,84.00
2023-01-23T10:07:16.236Z,83.31
2023-01-23T10:10:07.018Z,83.78
2023-01-23T10:12:50.934Z,83.75
2023-01-23T10:15:28.674Z,83.57
2023-01-23T10:18:13.696Z,83.66
2023-01-23T10:20:53.477Z,83.45
2023-01-23T10:23:43.487Z,83.06
2023-01-23T10:26:17.685Z,83.38
2023-01-23T10:28:48.919Z,83.07
2023-01-23T10:31:34.550Z,83.29
2023-01-23T10:34:14.768Z,83.11
2023-01-23T10:37:06.855Z,82.94
2023-01-23T10:39:51.085Z,83.14
2023-01-23T10:42:24.138Z,82.74
2023-01-23T10:44:54.919Z,82.88
2023-01-23T10:47:33.180Z,82.46
2023-01-23T10:50:03.577Z,82.93
2023-01-23T10:52:38.861Z,82.88
2023-01-23T10:55:28.469Z,82.64
2023-01-23T10:58:00.025Z,82.76
2023-01-23T11:00:38.465Z,82.20
2023-01-23T11:03:32.482Z,82.36
2023-01-23T11:06:06.930Z,82.46
2023-01-23T11:08:38.330Z,82.44
2023-01-23T11:11:26.583Z,82.46
2023-01-23T11:14:09.331Z,81.53
2023-01-23T11:16:39.886Z,81.42
2023-01-23T11:19:21.227Z,81.90
2023-01-23T11:21:56.478Z,81.57
2023-01-23T11:24:41.487Z,82.06
2023-01-23T11:27:21.182Z,81.60
2023-01-23T11:30:26.547Z,81.50
2023-01-23T11:33:00.641Z,81.57
2023-01-23T11:35:49.513Z,81.77
2023-01-23T11:38:30.466Z,81.43
2023-01-23T11:40:59.919Z,81.53
2023-01-23T11:43:28.195Z,81.47
2023-01-23T11:46:25.648Z,81.51
2023-01-23T11:49:28.496Z,81.63
2023-01-23T11:52:23.627Z,80.56
2023-01-23T11:55:18.835Z,81.42
2023-01-23T11:58:02.636Z,80.87
2023-01-23T12:00:36.707Z,80.88
2023-01-23T12:03:31.915Z,80.69
2023-01-23T12:06:26.138Z,80.74
2023-01-23T12:09:04.520Z,81.40
2023-01-23T12:11:46.501Z,80.54
2023-01-23T12:14:23.261Z,80.93
2023-01-23T12:17:08.982Z,80.55
2023-01-23T12:20:21.977Z,80.71
2023-01-23T12:23:14.115Z,80.33
2023-01-23T12:25:47.458Z,80.25
2023-01-23T12:28:32.288Z,80.36
2023-01-23T12:31:21.502Z,79.72
2023-01-23T12:34:13.569Z,80.20
2023-01-23T12:37:11.724Z,79.73
2023-01-23T12:40:09.956Z,80.32
2023-01-23T12:42:45.581Z,79.82
2023-01-23T12:45:23.306Z,79.69
2023-01-23T12:48:01.802Z,79.93
2023-01-23T12:50:43.745Z,79.68
2023-01-23T12:53:15.444Z,80.17
2023-01-23T12:55:57.580Z,80.04
2023-01-23T12:58:29.781Z,79.83
2023-01-23T13:01:16.727Z,79.55
2023-01-23T13:04:03.465Z,79.08
2023-01-23T13:06:54.916Z,79.32
2023-01-23T13:09:38.155Z,79.48
2023-01-23T13:12:20.405Z,79.06
2023-01-23T13:17:43.427Z,79.10
2023-01-23T13:20:44.885Z,79.04
2023-01-23T13:23:31.939Z,79.41
2023-01-23T13:26:29.327Z,79.60
2023-01-23T13:29:03.803Z,79.30
2023-01-23T13:31:45.244Z,79.44
2023-01-23T13:34:39.573Z,79.41
2023-01-23T13:37:52.556Z,79.42
2023-01-23T13:40:24.687Z,79.57
2023-01-23T13:42:53.559Z,79.31
2023-01-23T13:45:29.826Z,79.60
2023-01-23T14:23:04.738Z,79.47
2023-01-23T14:25:34.416Z,79.33
2023-01-23T14:28:07.084Z,79.81
2023-01-23T14:30:35.800Z,79.92
2023-01-23T14:33:18.122Z,79.76
2023-01-23T14:35:48.199Z,79.91
2023-01-23T14:38:25.978Z,80.31
2023-01-23T14:40:57.432Z,79.95
2023-01-23T14:43:30.358Z,80.02
2023-01-23T14:46:04.905Z,80.22
2023-01-23T14:48:38.906Z,79.99
2023-01-23T14:51:19.928Z,80.21
2023-01-23T14:53:57.770Z,80.34
2023-01-23T14:56:31.145Z,79.94
2023-01-23T14:59:03.212Z,79.97
2023-01-23T15:01:33.511Z,80.08
2023-01-23T15:04:06.083Z,80.22
2023-01-23T15:06:38.128Z,80.37
2023-01-23T15:09:10.541Z,79.84
2023-01-23T15:11:39.045Z,80.09
2023-01-23T15:14:22.617Z,80.11
2023-01-23T15:16:52.440Z,80.20
2023-01-23T15:19:24.064Z,79.74
2023-01-23T15:22:17.684Z,80.22
2023-01-23T15:24:46.494Z,80.48
2023-01-23T15:27:28.621Z,79.99
2023-01-23T15:30:32.383Z,80.39
2023-01-23T15:33:06.082Z,80.32
2023-01-23T15:35:35.859Z,80.32
2023-01-23T15:38:09.545Z,80.20
2023-01-23T15:40:39.596Z,80.47
2023-01-23T15:43:14.044Z,80.19
2023-01-23T15:45:42.662Z,80.33
2023-01-23T15:48:11.026Z,80.94
2023-01-23T15:50:39.511Z,80.21
2023-01-23T15:53:14.453Z,80.48
2023-01-23T15:55:43.145Z,80.40
2023-01-23T15:58:15.077Z,80.39
2023-01-23T16:00:44.007Z,80.84
2023-01-23T16:03:14.862Z,80.55
2023-01-23T16:05:48.507Z,81.28
2023-01-23T16:08:23.050Z,81.09
2023-01-23T16:10:52.436Z,80.99
2023-01-23T16:13:20.966Z,80.90
2023-01-23T16:15:49.895Z,80.92
2023-01-23T16:18:18.875Z,81.03
2023-01-23T16:20:47.976Z,80.91
2023-01-23T16:23:24.736Z,80.83
2023-01-23T16:25:53.495Z,81.14
2023-01-23T16:28:26.880Z,81.29
2023-01-23T16:30:56.292Z,81.08
2023-01-23T16:33:24.957Z,81.11
2023-01-23T16:35:55.458Z,81.16
2023-01-23T16:38:28.682Z,81.48
2023-01-23T16:40:59.720Z,81.27
2023-01-23T16:43:28.892Z,81.28
2023-01-23T16:45:57.769Z,81.46
2023-01-23T16:48:28.201Z,81.51
2023-01-23T16:51:01.983Z,81.59
2023-01-23T16:53:35.991Z,81.91
2023-01-23T16:56:06.157Z,81.82
2023-01-23T16:58:40.131Z,81.81
2023-01-23T17:01:16.509Z,81.91
2023-01-23T17:03:45.764Z,82.00
2023-01-23T17:06:16.169Z,81.97
2023-01-23T17:08:46.016Z,81.83
2023-01-23T17:11:22.803Z,81.22
2023-01-23T17:14:02.706Z,82.13
2023-01-23T17:16:31.745Z,82.11
2023-01-23T17:19:05.870Z,81.86
2023-01-23T17:21:35.960Z,81.94
2023-01-23T17:24:06.846Z,81.94
2023-01-23T17:26:35.827Z,81.84
2023-01-23T17:29:04.458Z,82.11
2023-01-23T17:31:33.428Z,82.43
2023-01-23T17:34:04.266Z,82.22
2023-01-23T17:36:33.212Z,82.25
2023-01-23T17:39:01.752Z,81.99
2023-01-23T17:41:33.133Z,82.00
2023-01-23T17:44:01.561Z,82.62
2023-01-23T17:46:33.393Z,82.36
2023-01-23T17:49:02.550Z,82.26
2023-01-23T17:51:33.538Z,82.41
2023-01-23T17:54:02.032Z,82.13
2023-01-23T17:56:32.318Z,82.36
2023-01-23T17:59:01.637Z,82.54
2023-01-23T18:01:30.483Z,82.50
2023-01-23T18:03:59.077Z,82.60
2023-01-23T18:06:29.721Z,82.23
2023-01-23T18:08:58.888Z,81.96
2023-01-23T18:11:27.770Z,82.12
2023-01-23T18:14:32.463Z,82.20
2023-01-23T18:17:01.539Z,82.36
2023-01-23T18:19:30.685Z,82.10
2023-01-23T18:21:59.910Z,81.75
2023-01-23T18:24:31.772Z,81.93
2023-01-23T18:27:19.584Z,82.53
2023-01-23T18:30:11.229Z,81.71
2023-01-23T18:32:56.305Z,81.65
2023-01-23T18:35:50.532Z,82.30
2023-01-23T18:38:31.891Z,81.78
2023-01-23T18:41:13.331Z,82.13
2023-01-23T18:43:46.011Z,81.71
2023-01-23T18:46:20.460Z,81.90
2023-01-23T18:48:50.071Z,81.70
2023-01-23T18:51:32.917Z,82.13
2023-01-23T18:54:16.877Z,82.29
2023-01-23T18:56:58.471Z,82.10
2023-01-23T18:59:38.882Z,81.93
2023-01-23T19:02:23.692Z,82.11
2023-01-23T19:05:10.225Z,81.68
2023-01-23T19:07:39.566Z,81.68
2023-01-23T19:10:15.131Z,81.71
2023-01-23T19:12:55.012Z,81.55
2023-01-23T19:15:30.231Z,81.98
2023-01-23T19:18:13.768Z,81.55
2023-01-23T19:20:48.329Z,82.00
2023-01-23T19:23:40.336Z,82.04
2023-01-23T19:26:14.147Z,81.85
2023-01-23T19:28:43.649Z,82.05
2023-01-23T19:31:22.626Z,81.45
2023-01-23T19:33:52.732Z,81.43
2023-01-23T19:36:22.585Z,81.80
2023-01-23T19:38:52.645Z,81.76
2023-01-23T19:41:23.621Z,81.74
2023-01-23T19:43:54.882Z,81.81
2023-01-23T19:46:27.743Z,81.45
2023-01-23T19:48:59.332Z,81.86
2023-01-23T19:51:31.489Z,81.63
2023-01-23T19:54:00.076Z,81.80
2023-01-23T19:56:28.960Z,81.50
2023-01-23T19:58:57.434Z,81.00
2023-01-23T20:01:35.243Z,81.30
2023-01-23T20:04:07.092Z,81.22
2023-01-23T20:06:38.778Z,81.88
2023-01-23T20:09:07.313Z,81.74
2023-01-23T20:11:36.217Z,81.50
2023-01-23T20:14:04.799Z,81.71
2023-01-23T20:16:33.195Z,81.86
2023-01-23T20:19:01.640Z,81.46
2023-01-23T20:21:31.437Z,81.66
2023-01-23T20:23:59.840Z,81.43
2023-01-23T20:26:28.184Z,81.69
2023-01-23T20:28:58.192Z,81.85
2023-01-23T20:31:27.594Z,81.88
2023-01-23T20:33:56.007Z,81.70
2023-01-23T20:36:24.364Z,81.40
2023-01-23T20:38:53.973Z,81.77
2023-01-23T20:41:23.481Z,81.58
2023-01-23T20:43:52.304Z,81.46
2023-01-23T20:46:20.808Z,81.47
2023-01-23T20:48:49.225Z,81.78
2023-01-23T20:51:18.551Z,81.56
2023-01-23T20:53:47.518Z,82.02
2023-01-23T20:56:19.257Z,81.96
2023-01-23T20:59:07.288Z,82.11
2023-01-23T21:01:52.446Z,81.60
2023-01-23T21:04:21.727Z,81.44
2023-01-23T21:06:50.087Z,82.14
2023-01-23T21:09:19.147Z,81.93
2023-01-23T21:11:51.708Z,82.11
2023-01-23T21:14:21.037Z,81.53
2023-01-23T21:16:49.910Z,82.21
2023-01-23T21:19:18.895Z,82.39
2023-01-23T21:21:47.505Z,81.95
2023-01-23T21:24:16.224Z,82.22
2023-01-23T21:26:45.069Z,82.43
2023-01-23T21:29:14.880Z,82.49
2023-01-23T21:31:45.331Z,81.88
2023-01-23T21:34:16.086Z,82.46
2023-01-23T21:36:45.214Z,82.26
2023-01-23T21:39:15.871Z,82.28
2023-01-23T21:41:44.947Z,82.80
2023-01-23T21:44:14.971Z,82.75
2023-01-23T21:46:44.088Z,82.92
2023-01-23T21:49:12.524Z,82.17
2023-01-23T21:51:40.971Z,82.96
2023-01-23T21:54:10.518Z,82.76
2023-01-23T21:56:38.992Z,83.03
2023-01-23T21:59:07.405Z,82.38
2023-01-23T22:01:37.566Z,82.87
2023-01-23T22:04:09.531Z,83.09
2023-01-23T22:06:40.110Z,83.21
2023-01-23T22:09:10.868Z,82.76
2023-01-23T22:11:39.802Z,83.17
2023-01-23T22:14:08.482Z,82.91
2023-01-23T22:16:53.846Z,82.66
2023-01-23T22:19:25.523Z,83.11
2023-01-23T22:21:54.970Z,83.08
2023-01-23T22:24:24.075Z,83.38
2023-01-23T22:26:52.961Z,82.94
2023-01-23T22:29:22.899Z,83.40
2023-01-23T22:31:53.309Z,82.94
2023-01-23T22:34:22.131Z,82.97
2023-01-23T22:36:50.837Z,82.86
2023-01-23T22:39:20.001Z,83.35
2023-01-23T22:41:51.374Z,83.36
2023-01-23T22:44:20.049Z,83.12
2023-01-23T22:46:53.256Z,83.06
2023-01-23T22:49:21.993Z,83.33
2023-01-23T22:51:51.896Z,83.56
2023-01-23T22:54:20.306Z,83.47
2023-01-23T22:56:48.627Z,83.74
2023-01-23T22:59:16.922Z,83.45
2023-01-23T23:01:45.848Z,83.78
2023-01-23T23:04:15.592Z,83.78
2023-01-23T23:06:44.330Z,83.48
2023-01-23T23:09:12.855Z,83.55
2023-01-23T23:11:42.631Z,83.37
2023-01-23T23:14:12.952Z,83.60
2023-01-23T23:16:41.521Z,83.61
2023-01-23T23:19:11.072Z,83.74
2023-01-23T23:21:41.537Z,83.54
2023-01-23T23:24:14.006Z,83.58
2023-01-23T23:26:42.606Z,83.90
2023-01-23T23:29:12.170Z,84.27
2023-01-23T23:31:40.859Z,83.72
2023-01-23T23:34:09.501Z,84.22
2023-01-23T23:36:38.912Z,83.68
2023-01-23T23:39:08.797Z,83.91
2023-01-23T23:41:38.357Z,83.96
2023-01-23T23:44:06.991Z,84.08
2023-01-23T23:46:36.070Z,83.78
2023-01-23T23:49:04.732Z,83.87
2023-01-23T23:51:33.123Z,84.51
2023-01-23T23:54:01.420Z,84.21
2023-01-23T23:56:32.452Z,83.94
2023-01-23T23:59:00.876Z,84.54
